Logan Peak - 24 Hour Table
Date & TimeSolar
Radiation
(W/m²)
Wind
Speed
(mph)
Wind
Direction
(degrees)
Air
Temperature
(°F)
Relative
Humidity
(%)
Barometeric
Pressure
(inHg)
Max
Wind
Speed
(mph)
2020/09/25 05:00 0 19.0 254 46.7 41 29.92 30.9
2020/09/25 04:00 0 18.8 260 47.7 43 29.92 30.0
2020/09/25 03:00 0 21.0 256 49.1 35 29.91 31.5
2020/09/25 02:00 0 22.4 262 50.3 35 29.91 34.9
2020/09/25 01:00 0 20.0 271 50.3 33 29.91 28.0
2020/09/25 00:00 0 15.1 289 49.5 37 29.91 22.1
2020/09/24 23:00 0 16.1 267 50.9 33 29.91 26.6
2020/09/24 22:00 0 20.3 244 53.4 28 29.91 27.3
2020/09/24 21:00 0 23.4 243 54.1 25 29.92 30.0
2020/09/24 20:00 0 20.6 244 54.2 24 29.92 27.7
2020/09/24 19:00 4 22.2 241 54.7 24 29.92 34.7
2020/09/24 18:00 94 20.8 249 55.7 23 29.93 35.6
2020/09/24 17:00 237 26.5 245 56.3 26 29.93 40.9
2020/09/24 16:00 406 24.5 248 57.4 27 29.93 46.8
2020/09/24 15:00 612 21.4 251 57.7 25 29.94 44.7
2020/09/24 14:00 714 18.5 245 57.8 27 29.95 35.6
2020/09/24 13:00 754 15.8 242 57.1 27 29.97 30.6
2020/09/24 12:00 738 15.7 229 56.6 25 29.98 30.4
2020/09/24 11:00 665 19.0 215 55.6 25 29.99 30.6
2020/09/24 10:00 541 20.1 223 54.3 25 30.00 32.9
2020/09/24 09:00 378 21.4 216 53.7 26 30.00 31.5
2020/09/24 08:00 194 23.2 220 53.2 27 29.99 36.0
2020/09/24 07:00 26 25.2 209 53.5 26 29.99 39.4
2020/09/24 06:00 0 27.9 200 53.8 26 29.99 38.0